createdAt,value
2018-04-23T00:00:25.591Z,12.60
2018-04-23T00:02:54.263Z,12.52
2018-04-23T00:05:23.037Z,12.49
2018-04-23T00:07:54.454Z,12.52
2018-04-23T00:10:23.253Z,12.46
2018-04-23T00:12:51.794Z,12.45
2018-04-23T00:15:20.442Z,12.37
2018-04-23T00:17:49.920Z,12.37
2018-04-23T00:20:18.596Z,12.37
2018-04-23T00:22:47.160Z,12.33
2018-04-23T00:25:16.502Z,12.30
2018-04-23T00:27:46.309Z,12.29
2018-04-23T00:30:15.124Z,12.32
2018-04-23T00:32:43.757Z,12.25
2018-04-23T00:35:13.479Z,12.18
2018-04-23T00:37:42.534Z,12.07
2018-04-23T00:40:11.254Z,11.98
2018-04-23T00:42:39.905Z,11.86
2018-04-23T00:45:08.601Z,11.76
2018-04-23T00:47:37.242Z,11.70
2018-04-23T00:50:05.871Z,11.69
2018-04-23T00:52:34.559Z,11.66
2018-04-23T00:55:03.277Z,11.56
2018-04-23T00:57:32.004Z,11.49
2018-04-23T01:00:00.693Z,11.42
2018-04-23T01:02:29.346Z,11.41
2018-04-23T01:04:57.952Z,11.41
2018-04-23T01:07:27.527Z,11.37
2018-04-23T01:09:56.452Z,11.33
2018-04-23T01:12:25.462Z,11.34
2018-04-23T01:14:54.171Z,11.41
2018-04-23T01:17:22.964Z,11.46
2018-04-23T01:19:51.559Z,11.51
2018-04-23T01:22:20.239Z,11.52
2018-04-23T01:24:48.829Z,11.49
2018-04-23T01:29:51.103Z,11.36
2018-04-23T01:32:19.794Z,11.38
2018-04-23T01:34:49.224Z,11.36
2018-04-23T01:37:18.220Z,11.30
2018-04-23T01:42:21.711Z,11.27
2018-04-23T01:44:50.389Z,11.16
2018-04-23T01:47:19.813Z,10.98
2018-04-23T01:52:22.993Z,10.75
2018-04-23T01:54:51.741Z,10.71
2018-04-23T01:57:20.387Z,10.67
2018-04-23T01:59:49.226Z,10.67
2018-04-23T02:02:18.881Z,10.61
2018-04-23T02:04:47.904Z,10.54
2018-04-23T02:07:16.609Z,10.51
2018-04-23T02:09:46.172Z,10.49
2018-04-23T02:12:15.752Z,10.45
2018-04-23T02:14:44.378Z,10.38
2018-04-23T02:17:13.120Z,10.39
2018-04-23T02:19:41.757Z,10.35
2018-04-23T02:22:10.349Z,10.33
2018-04-23T02:24:39.075Z,10.41
2018-04-23T02:27:08.190Z,10.41
2018-04-23T02:29:37.349Z,10.35
2018-04-23T02:32:07.451Z,10.35
2018-04-23T02:34:36.481Z,10.31
2018-04-23T02:37:05.220Z,10.21
2018-04-23T02:39:34.753Z,10.08
2018-04-23T02:42:03.909Z,10.03
2018-04-23T02:44:32.567Z,10.05
2018-04-23T02:47:01.867Z,10.01
2018-04-23T02:49:30.850Z,10.06
2018-04-23T02:51:59.520Z,10.06
2018-04-23T02:54:28.851Z,10.15
2018-04-23T02:56:58.091Z,10.29
2018-04-23T02:59:26.785Z,10.41
2018-04-23T03:01:55.625Z,10.49
2018-04-23T03:04:25.598Z,10.52
2018-04-23T03:06:54.392Z,10.53
2018-04-23T03:09:23.032Z,10.55
2018-04-23T03:11:51.700Z,10.53
2018-04-23T03:14:20.345Z,10.49
2018-04-23T03:16:49.779Z,10.42
2018-04-23T03:19:18.460Z,10.19
2018-04-23T03:21:48.376Z,10.00
2018-04-23T03:24:16.932Z,9.84
2018-04-23T03:26:46.350Z,9.71
2018-04-23T03:29:14.985Z,9.58
2018-04-23T03:31:43.693Z,9.51
2018-04-23T03:34:12.724Z,9.44
2018-04-23T03:36:42.149Z,9.39
2018-04-23T03:39:10.875Z,9.38
2018-04-23T03:41:39.550Z,9.40
2018-04-23T03:44:08.298Z,9.43
2018-04-23T03:46:37.011Z,9.42
2018-04-23T03:49:06.497Z,9.41
2018-04-23T03:51:35.106Z,9.38
2018-04-23T03:54:03.680Z,9.36
2018-04-23T03:56:32.464Z,9.34
2018-04-23T03:59:01.883Z,9.34
2018-04-23T04:01:30.437Z,9.36
2018-04-23T04:03:59.458Z,9.39
2018-04-23T04:06:29.034Z,9.44
2018-04-23T04:08:59.623Z,9.47
2018-04-23T04:11:28.645Z,9.51
2018-04-23T04:14:16.163Z,9.57
2018-04-23T04:16:58.792Z,9.64
2018-04-23T04:19:27.702Z,9.70
2018-04-23T04:21:56.393Z,9.72
2018-04-23T04:24:25.266Z,9.67
2018-04-23T04:26:53.937Z,9.57
2018-04-23T04:31:56.276Z,9.37
2018-04-23T04:34:25.247Z,9.30
2018-04-23T04:36:54.237Z,9.24
2018-04-23T04:39:24.101Z,9.20
2018-04-23T04:41:52.865Z,9.21
2018-04-23T04:44:21.499Z,9.18
2018-04-23T04:46:50.280Z,9.16
2018-04-23T04:49:18.973Z,9.16
2018-04-23T04:51:47.572Z,9.13
2018-04-23T04:54:16.289Z,9.16
2018-04-23T04:56:44.992Z,9.21
2018-04-23T04:59:13.724Z,9.25
2018-04-23T05:01:43.318Z,9.29
2018-04-23T05:04:12.249Z,9.34
2018-04-23T05:06:40.978Z,9.43
2018-04-23T05:09:11.193Z,9.48
2018-04-23T05:11:40.057Z,9.57
2018-04-23T05:14:08.622Z,9.71
2018-04-23T05:16:37.409Z,9.83
2018-04-23T05:19:06.084Z,9.95
2018-04-23T05:21:34.842Z,10.14
2018-04-23T05:24:03.461Z,10.79
2018-04-23T05:29:07.209Z,12.22
2018-04-23T05:31:35.775Z,12.81
2018-04-23T05:34:04.343Z,13.29
2018-04-23T05:39:08.027Z,14.42
2018-04-23T05:41:36.714Z,15.10
2018-04-23T05:44:06.190Z,15.48
2018-04-23T05:46:34.870Z,15.87
2018-04-23T05:49:03.477Z,15.94
2018-04-23T05:51:32.291Z,16.18
2018-04-23T05:54:01.104Z,16.49
2018-04-23T05:56:29.817Z,16.68
2018-04-23T05:58:58.599Z,16.68
2018-04-23T06:01:28.168Z,16.81
2018-04-23T06:03:57.101Z,17.23
2018-04-23T06:06:26.087Z,17.28
2018-04-23T06:08:54.919Z,17.42
2018-04-23T06:11:23.594Z,17.69
2018-04-23T06:13:52.257Z,18.00
2018-04-23T06:16:21.655Z,18.53
2018-04-23T06:18:50.828Z,18.73
2018-04-23T06:23:53.351Z,19.25
2018-04-23T06:26:21.992Z,19.46
2018-04-23T06:28:50.754Z,20.01
2018-04-23T06:31:20.720Z,20.47
2018-04-23T06:33:51.537Z,20.68
2018-04-23T06:36:21.138Z,21.07
2018-04-23T06:38:49.881Z,21.42
2018-04-23T06:41:18.649Z,21.73
2018-04-23T06:43:48.975Z,22.00
2018-04-23T06:48:51.264Z,22.12
2018-04-23T06:51:19.991Z,22.74
2018-04-23T06:53:49.864Z,23.77
2018-04-23T06:56:20.817Z,23.75
2018-04-23T06:58:50.066Z,23.26
2018-04-23T07:01:19.522Z,23.81
2018-04-23T07:03:48.241Z,23.87
2018-04-23T07:06:17.006Z,24.41
2018-04-23T07:08:47.423Z,24.54
2018-04-23T07:11:16.387Z,25.01
2018-04-23T07:13:45.356Z,25.66
2018-04-23T07:16:14.266Z,25.57
2018-04-23T07:18:42.894Z,25.78
2018-04-23T07:23:46.327Z,26.55
2018-04-23T07:26:15.077Z,26.81
2018-04-23T07:28:43.752Z,26.85
2018-04-23T07:31:12.497Z,26.85
2018-04-23T07:33:41.259Z,26.53
2018-04-23T07:36:09.961Z,26.85
2018-04-23T07:38:38.743Z,27.15
2018-04-23T07:41:07.529Z,27.05
2018-04-23T07:43:36.210Z,27.17
2018-04-23T07:46:04.937Z,27.77
2018-04-23T07:48:34.337Z,27.76
2018-04-23T07:51:03.511Z,28.27
2018-04-23T07:53:32.965Z,28.28
2018-04-23T07:56:02.098Z,28.38
2018-04-23T07:58:30.828Z,28.76
2018-04-23T08:01:00.864Z,28.49
2018-04-23T08:03:30.751Z,27.86
2018-04-23T08:05:59.826Z,28.89
2018-04-23T08:08:28.486Z,29.17
2018-04-23T08:10:57.352Z,29.26
2018-04-23T08:13:25.958Z,29.84
2018-04-23T08:15:54.739Z,29.87
2018-04-23T08:20:58.175Z,29.60
2018-04-23T08:23:27.030Z,29.87
2018-04-23T08:25:55.700Z,30.48
2018-04-23T08:28:25.196Z,31.11
2018-04-23T08:30:53.898Z,31.50
2018-04-23T08:33:22.659Z,31.95
2018-04-23T08:35:51.502Z,32.27
2018-04-23T08:38:20.213Z,32.06
2018-04-23T08:40:48.878Z,32.84
2018-04-23T08:43:18.247Z,32.08
2018-04-23T08:45:47.060Z,32.76
2018-04-23T08:48:15.727Z,31.79
2018-04-23T08:50:46.784Z,31.81
2018-04-23T08:53:16.447Z,32.44
2018-04-23T08:55:46.798Z,32.04
2018-04-23T08:58:15.569Z,32.21
2018-04-23T09:00:45.142Z,30.40
2018-04-23T09:03:13.963Z,30.53
2018-04-23T09:05:42.900Z,31.13
2018-04-23T09:08:11.469Z,32.04
2018-04-23T09:10:40.331Z,31.81
2018-04-23T09:13:09.839Z,32.80
2018-04-23T09:15:38.742Z,33.18
2018-04-23T09:18:07.627Z,33.45
2018-04-23T09:20:37.061Z,33.95
2018-04-23T09:23:06.899Z,33.98
2018-04-23T09:25:35.588Z,33.61
2018-04-23T09:28:04.300Z,33.36
2018-04-23T09:30:32.892Z,33.04
2018-04-23T09:33:01.634Z,33.74
2018-04-23T09:35:30.326Z,33.54
2018-04-23T09:40:32.556Z,32.86
2018-04-23T09:43:01.276Z,33.60
2018-04-23T09:45:30.011Z,33.37
2018-04-23T09:47:59.256Z,33.53
2018-04-23T09:50:28.757Z,34.10
2018-04-23T09:52:58.295Z,34.42
2018-04-23T09:55:27.024Z,34.65
2018-04-23T09:57:55.807Z,33.93
2018-04-23T10:00:31.945Z,33.19
2018-04-23T10:03:06.439Z,32.44
2018-04-23T10:05:35.242Z,33.43
2018-04-23T10:08:04.111Z,33.99
2018-04-23T10:10:33.331Z,33.17
2018-04-23T10:13:02.145Z,34.36
2018-04-23T10:15:31.697Z,34.82
2018-04-23T10:18:01.176Z,35.14
2018-04-23T10:20:29.893Z,34.26
2018-04-23T10:22:58.604Z,30.26
2018-04-23T10:25:27.440Z,30.73
2018-04-23T10:27:56.958Z,31.66
2018-04-23T10:32:59.592Z,32.81
2018-04-23T10:35:29.620Z,33.69
2018-04-23T10:37:59.074Z,33.74
2018-04-23T10:40:28.575Z,33.32
2018-04-23T10:42:57.311Z,33.80
2018-04-23T10:48:00.396Z,34.15
2018-04-23T10:50:29.781Z,34.66
2018-04-23T10:52:58.417Z,35.20
2018-04-23T10:55:27.174Z,35.06
2018-04-23T10:57:55.780Z,34.82
2018-04-23T11:00:24.541Z,34.57
2018-04-23T11:02:54.796Z,34.76
2018-04-23T11:05:23.992Z,34.71
2018-04-23T11:07:52.793Z,34.64
2018-04-23T11:10:21.471Z,34.56
2018-04-23T11:12:50.926Z,34.63
2018-04-23T11:15:20.012Z,34.25
2018-04-23T11:17:49.418Z,34.68
2018-04-23T11:20:19.142Z,34.10
2018-04-23T11:22:47.863Z,34.23
2018-04-23T11:25:16.879Z,34.13
2018-04-23T11:27:45.615Z,34.37
2018-04-23T11:30:14.402Z,34.63
2018-04-23T11:32:44.206Z,34.27
2018-04-23T11:35:13.335Z,34.28
2018-04-23T11:40:16.250Z,33.99
2018-04-23T11:42:44.876Z,33.94
2018-04-23T11:45:13.716Z,34.08
2018-04-23T11:47:42.551Z,33.93
2018-04-23T11:50:11.370Z,34.14
2018-04-23T11:55:14.881Z,33.90
2018-04-23T11:57:45.788Z,33.90
2018-04-23T12:00:15.037Z,34.14
2018-04-23T12:02:43.883Z,33.49
2018-04-23T12:05:13.456Z,33.42
2018-04-23T12:07:42.367Z,34.42
2018-04-23T12:10:11.105Z,34.74
2018-04-23T12:12:39.897Z,34.47
2018-04-23T12:15:08.989Z,34.43
2018-04-23T12:17:37.755Z,34.84
2018-04-23T12:20:06.731Z,35.22
2018-04-23T12:22:37.112Z,35.36
2018-04-23T12:25:07.395Z,34.51
2018-04-23T12:27:36.479Z,34.51
2018-04-23T12:30:05.972Z,34.38
2018-04-23T12:32:34.957Z,35.12
2018-04-23T12:35:03.875Z,35.22
2018-04-23T12:37:32.779Z,35.12
2018-04-23T12:40:01.531Z,35.25
2018-04-23T12:42:30.148Z,34.94
2018-04-23T12:44:58.938Z,35.04
2018-04-23T12:47:27.808Z,35.14
2018-04-23T12:49:56.619Z,35.10
2018-04-23T12:52:25.544Z,35.24
2018-04-23T12:54:54.767Z,35.31
2018-04-23T12:57:25.576Z,35.32
2018-04-23T13:02:31.227Z,35.05
2018-04-23T13:05:00.145Z,35.25
2018-04-23T13:07:29.163Z,35.26
2018-04-23T13:09:58.001Z,34.88
2018-04-23T13:12:27.855Z,35.02
2018-04-23T13:14:57.322Z,34.78
2018-04-23T13:17:26.233Z,34.88
2018-04-23T13:19:55.815Z,34.84
2018-04-23T13:22:25.826Z,34.64
2018-04-23T13:24:54.529Z,34.89
2018-04-23T13:27:24.314Z,35.00
2018-04-23T13:29:53.187Z,35.27
2018-04-23T13:32:21.854Z,34.90
2018-04-23T13:34:50.904Z,35.06
2018-04-23T13:37:19.718Z,35.33
2018-04-23T13:39:48.595Z,34.59
2018-04-23T13:42:17.456Z,33.61
2018-04-23T13:44:46.184Z,33.08
2018-04-23T13:47:14.885Z,32.73
2018-04-23T13:49:44.495Z,32.58
2018-04-23T13:52:13.679Z,32.49
2018-04-23T13:54:43.178Z,32.27
2018-04-23T13:57:14.131Z,31.72
2018-04-23T13:59:42.998Z,31.36
2018-04-23T14:02:11.829Z,30.89
2018-04-23T14:04:41.180Z,30.60
2018-04-23T14:07:10.811Z,30.40
2018-04-23T14:09:39.573Z,30.24
2018-04-23T14:12:08.255Z,29.94
2018-04-23T14:14:37.152Z,30.12
2018-04-23T14:17:06.187Z,30.39
2018-04-23T14:19:36.938Z,30.39
2018-04-23T14:22:10.682Z,30.41
2018-04-23T14:24:40.990Z,30.26
2018-04-23T14:29:46.485Z,30.71
2018-04-23T14:32:15.179Z,30.46
2018-04-23T14:34:45.642Z,30.29
2018-04-23T14:37:15.181Z,30.72
2018-04-23T14:39:44.949Z,30.83
2018-04-23T14:42:15.589Z,31.09
2018-04-23T14:44:44.976Z,30.79
2018-04-23T14:47:14.145Z,30.85
2018-04-23T14:49:44.086Z,30.95
2018-04-23T14:52:14.250Z,31.30
2018-04-23T14:54:44.310Z,31.51
2018-04-23T14:57:13.336Z,31.17
2018-04-23T14:59:43.023Z,30.64
2018-04-23T15:02:12.314Z,30.59
2018-04-23T15:04:41.987Z,30.53
2018-04-23T15:07:12.312Z,30.60
2018-04-23T15:12:21.706Z,30.09
2018-04-23T15:14:50.944Z,30.30
2018-04-23T15:19:59.498Z,29.86
2018-04-23T15:22:29.083Z,29.77
2018-04-23T15:24:59.385Z,29.75
2018-04-23T15:27:29.113Z,29.70
2018-04-23T15:29:58.119Z,29.68
2018-04-23T15:32:27.037Z,29.60
2018-04-23T15:37:40.944Z,29.86
2018-04-23T15:40:11.695Z,29.83
2018-04-23T15:42:45.412Z,29.82
2018-04-23T15:45:15.291Z,29.50
2018-04-23T15:47:45.742Z,29.34
2018-04-23T15:50:15.667Z,29.12
2018-04-23T15:52:46.331Z,28.86
2018-04-23T15:55:16.409Z,28.69
2018-04-23T15:57:46.382Z,28.60
2018-04-23T16:00:15.563Z,28.52
2018-04-23T16:02:44.458Z,28.51
2018-04-23T16:05:13.697Z,28.32
2018-04-23T16:07:42.487Z,28.15
2018-04-23T16:10:12.326Z,27.99
2018-04-23T16:12:41.913Z,27.90
2018-04-23T16:15:10.832Z,27.80
2018-04-23T16:17:46.421Z,27.58
2018-04-23T16:20:17.818Z,27.35
2018-04-23T16:22:48.264Z,27.24
2018-04-23T16:25:16.927Z,27.16
2018-04-23T16:30:19.557Z,26.80
2018-04-23T16:32:48.314Z,26.72
2018-04-23T16:35:17.431Z,26.65
2018-04-23T16:37:47.606Z,26.61
2018-04-23T16:40:17.855Z,26.61
2018-04-23T16:42:48.034Z,26.52
2018-04-23T16:45:17.518Z,26.38
2018-04-23T16:47:48.846Z,26.32
2018-04-23T16:50:17.672Z,26.16
2018-04-23T16:52:46.516Z,26.14
2018-04-23T16:55:15.515Z,25.94
2018-04-23T16:57:45.053Z,25.92
2018-04-23T17:00:14.758Z,25.82
2018-04-23T17:02:43.583Z,25.70
2018-04-23T17:05:13.013Z,25.63
2018-04-23T17:07:42.582Z,25.50
2018-04-23T17:10:12.437Z,25.40
2018-04-23T17:12:41.961Z,25.23
2018-04-23T17:15:11.116Z,25.07
2018-04-23T17:17:40.617Z,24.97
2018-04-23T17:20:09.427Z,24.89
2018-04-23T17:22:38.230Z,24.71
2018-04-23T17:25:07.054Z,24.60
2018-04-23T17:27:35.799Z,24.43
2018-04-23T17:30:04.677Z,24.19
2018-04-23T17:32:33.386Z,24.08
2018-04-23T17:35:02.263Z,23.92
2018-04-23T17:37:30.995Z,23.84
2018-04-23T17:40:00.158Z,23.60
2018-04-23T17:42:29.671Z,23.50
2018-04-23T17:45:00.956Z,23.35
2018-04-23T17:47:29.979Z,23.12
2018-04-23T17:49:58.697Z,23.02
2018-04-23T17:52:29.348Z,22.93
2018-04-23T17:54:58.091Z,22.82
2018-04-23T17:57:26.764Z,22.75
2018-04-23T17:59:55.449Z,22.72
2018-04-23T18:02:25.240Z,22.62
2018-04-23T18:04:54.895Z,22.60
2018-04-23T18:07:24.329Z,22.53
2018-04-23T18:12:27.357Z,22.42
2018-04-23T18:14:56.966Z,22.40
2018-04-23T18:17:26.266Z,22.31
2018-04-23T18:19:55.045Z,22.25
2018-04-23T18:22:24.009Z,22.20
2018-04-23T18:24:53.557Z,22.18
2018-04-23T18:27:23.377Z,22.15
2018-04-23T18:29:54.543Z,22.05
2018-04-23T18:32:24.005Z,21.99
2018-04-23T18:34:54.488Z,21.80
2018-04-23T18:37:23.947Z,21.66
2018-04-23T18:39:53.030Z,21.50
2018-04-23T18:42:22.706Z,21.33
2018-04-23T18:44:52.013Z,21.20
2018-04-23T18:47:21.539Z,21.01
2018-04-23T18:49:51.217Z,20.71
2018-04-23T18:52:20.645Z,20.50
2018-04-23T18:54:50.025Z,20.30
2018-04-23T18:57:20.038Z,20.21
2018-04-23T18:59:50.207Z,20.18
2018-04-23T19:02:21.105Z,20.14
2018-04-23T19:04:52.423Z,20.12
2018-04-23T19:07:22.090Z,20.07
2018-04-23T19:09:51.531Z,20.01
2018-04-23T19:12:20.605Z,19.92
2018-04-23T19:14:51.156Z,19.80
2018-04-23T19:17:21.631Z,19.71
2018-04-23T19:19:51.630Z,19.59
2018-04-23T19:22:22.817Z,19.51
2018-04-23T19:24:53.151Z,19.39
2018-04-23T19:27:23.324Z,19.30
2018-04-23T19:29:52.231Z,19.20
2018-04-23T19:32:21.924Z,19.12
2018-04-23T19:37:25.251Z,18.82
2018-04-23T19:39:54.867Z,18.69
2018-04-23T19:42:25.664Z,18.52
2018-04-23T19:44:55.279Z,18.32
2018-04-23T19:47:25.156Z,18.19
2018-04-23T19:49:56.779Z,18.04
2018-04-23T19:52:26.421Z,18.03
2018-04-23T19:54:55.985Z,17.97
2018-04-23T19:57:25.489Z,17.85
2018-04-23T19:59:54.922Z,17.75
2018-04-23T20:02:24.494Z,17.75
2018-04-23T20:07:28.646Z,17.72
2018-04-23T20:09:59.158Z,17.68
2018-04-23T20:12:28.419Z,17.65
2018-04-23T20:14:57.284Z,17.59
2018-04-23T20:17:26.057Z,17.56
2018-04-23T20:19:56.925Z,17.54
2018-04-23T20:22:26.321Z,17.57
2018-04-23T20:24:56.530Z,17.51
2018-04-23T20:27:25.857Z,17.42
2018-04-23T20:29:55.355Z,17.30
2018-04-23T20:32:25.648Z,17.28
2018-04-23T20:34:57.300Z,17.25
2018-04-23T20:37:26.328Z,17.23
2018-04-23T20:39:55.283Z,17.14
2018-04-23T20:42:25.208Z,17.08
2018-04-23T20:45:01.129Z,17.08
2018-04-23T20:47:31.659Z,17.03
2018-04-23T20:50:00.660Z,17.02
2018-04-23T20:52:29.997Z,16.97
2018-04-23T20:54:59.328Z,16.90
2018-04-23T20:57:29.378Z,16.87
2018-04-23T20:59:58.402Z,16.83
2018-04-23T21:02:26.974Z,16.61
2018-04-23T21:04:56.002Z,16.52
2018-04-23T21:07:24.902Z,16.55
2018-04-23T21:09:54.394Z,16.51
2018-04-23T21:12:23.672Z,16.42
2018-04-23T21:14:52.597Z,16.28
2018-04-23T21:17:21.560Z,16.06
2018-04-23T21:19:50.874Z,15.78
2018-04-23T21:22:20.447Z,15.63
2018-04-23T21:24:50.199Z,15.61
2018-04-23T21:27:20.486Z,15.62
2018-04-23T21:29:51.574Z,15.62
2018-04-23T21:32:20.273Z,15.62
2018-04-23T21:34:49.231Z,15.60
2018-04-23T21:37:18.295Z,15.66
2018-04-23T21:39:47.436Z,15.64
2018-04-23T21:42:15.975Z,15.69
2018-04-23T21:44:44.855Z,15.74
2018-04-23T21:47:14.374Z,15.64
2018-04-23T21:49:43.253Z,15.55
2018-04-23T21:52:12.213Z,15.52
2018-04-23T21:54:42.824Z,15.50
2018-04-23T21:57:12.082Z,15.38
2018-04-23T21:59:42.012Z,15.30
2018-04-23T22:02:10.867Z,15.20
2018-04-23T22:04:39.837Z,15.10
2018-04-23T22:07:08.677Z,15.11
2018-04-23T22:09:37.458Z,15.07
2018-04-23T22:12:06.341Z,14.92
2018-04-23T22:14:35.092Z,14.81
2018-04-23T22:17:05.427Z,14.75
2018-04-23T22:19:33.997Z,14.63
2018-04-23T22:22:03.719Z,14.54
2018-04-23T22:27:06.536Z,14.48
2018-04-23T22:29:35.225Z,14.42
2018-04-23T22:32:04.718Z,14.33
2018-04-23T22:34:34.174Z,14.27
2018-04-23T22:37:02.780Z,14.24
2018-04-23T22:39:31.365Z,14.20
2018-04-23T22:41:59.961Z,14.16
2018-04-23T22:44:29.249Z,14.06
2018-04-23T22:46:58.575Z,13.95
2018-04-23T22:49:27.471Z,13.76
2018-04-23T22:51:56.752Z,13.65
2018-04-23T22:54:25.773Z,13.67
2018-04-23T22:56:55.274Z,13.67
2018-04-23T22:59:24.034Z,13.62
2018-04-23T23:01:52.850Z,13.61
2018-04-23T23:04:22.344Z,13.57
2018-04-23T23:06:51.334Z,13.55
2018-04-23T23:09:20.073Z,13.50
2018-04-23T23:11:48.861Z,13.39
2018-04-23T23:14:17.774Z,13.34
2018-04-23T23:16:46.464Z,13.31
2018-04-23T23:19:15.265Z,13.25
2018-04-23T23:21:44.534Z,13.08
2018-04-23T23:24:14.123Z,12.92
2018-04-23T23:26:42.888Z,12.75
2018-04-23T23:29:12.211Z,12.73
2018-04-23T23:31:40.818Z,12.71
2018-04-23T23:34:10.188Z,12.71
2018-04-23T23:39:12.485Z,12.73
2018-04-23T23:41:41.941Z,12.76
2018-04-23T23:44:10.697Z,12.69
2018-04-23T23:46:40.482Z,12.59
2018-04-23T23:49:10.094Z,12.49
2018-04-23T23:51:39.151Z,12.51
2018-04-23T23:54:07.711Z,12.59
2018-04-23T23:56:36.433Z,12.55
